Time;durP1;ratioP1;P1;durP2;ratioP2;P2;SDS_P1;SDS_P2;PMS_P1;PMS_P2;Temp;Humidity;BMP_temperature;BMP_pressure;BME280_temperature;BME280_humidity;BME280_pressure;Samples;Min_cycle;Max_cycle;Signal;HPM_P1;HPM_P2
2022/08/22 00:00:22;;;;;;;4.50;2.72;;;14.80;99.90;;;;;;5075911;28;20091;-73
2022/08/22 00:03:03;;;;;;;3.45;2.67;;;14.70;99.90;;;;;;5075799;28;20550;-73
2022/08/22 00:05:37;;;;;;;3.67;2.75;;;14.70;99.90;;;;;;5075833;28;20043;-72
2022/08/22 00:08:22;;;;;;;3.85;2.55;;;14.70;99.90;;;;;;5075676;28;20043;-73
2022/08/22 00:11:01;;;;;;;5.40;3.25;;;14.70;99.90;;;;;;5075820;28;20021;-73
2022/08/22 00:13:54;;;;;;;3.25;2.45;;;14.70;99.90;;;;;;5075715;28;20016;-72
2022/08/22 00:16:40;;;;;;;5.22;2.83;;;14.70;99.90;;;;;;5075651;28;20074;-73
2022/08/22 00:19:26;;;;;;;4.28;2.85;;;14.60;99.90;;;;;;5075492;28;20081;-72
2022/08/22 00:22:23;;;;;;;3.92;2.60;;;14.60;99.90;;;;;;5074192;28;20044;-72
2022/08/22 00:25:08;;;;;;;4.45;2.53;;;14.60;99.90;;;;;;5076066;28;20021;-73
2022/08/22 00:28:02;;;;;;;5.30;2.78;;;14.60;99.90;;;;;;5075686;28;20422;-73
2022/08/22 00:30:41;;;;;;;4.82;3.03;;;14.50;99.90;;;;;;5075682;28;20162;-72
2022/08/22 00:33:35;;;;;;;3.97;3.13;;;14.50;99.90;;;;;;5075221;28;20047;-73
2022/08/22 00:36:20;;;;;;;4.03;2.60;;;14.40;99.90;;;;;;5073368;28;20393;-73
2022/08/22 00:39:08;;;;;;;4.03;2.70;;;14.30;99.90;;;;;;5075491;28;20020;-73
2022/08/22 00:41:52;;;;;;;6.35;2.97;;;14.30;99.90;;;;;;5075373;28;20465;-73
2022/08/22 00:44:38;;;;;;;3.45;2.45;;;14.20;99.90;;;;;;5075396;28;20021;-73
2022/08/22 00:47:34;;;;;;;4.60;2.92;;;14.10;99.90;;;;;;5075270;28;20070;-73
2022/08/22 00:50:37;;;;;;;6.60;2.63;;;14.10;99.90;;;;;;5073016;28;20033;-73
2022/08/22 00:53:29;;;;;;;4.05;2.38;;;14.10;99.90;;;;;;5075396;28;20025;-74
2022/08/22 00:56:20;;;;;;;5.80;3.10;;;14.00;99.90;;;;;;5073617;28;20035;-75
2022/08/22 00:59:06;;;;;;;3.75;2.65;;;13.90;99.90;;;;;;5074787;28;20115;-75
2022/08/22 01:01:36;;;;;;;4.10;2.90;;;13.90;99.90;;;;;;5074693;28;20020;-74
2022/08/22 01:04:50;;;;;;;4.82;2.92;;;13.90;99.90;;;;;;5074684;28;20024;-75
2022/08/22 01:07:45;;;;;;;5.22;2.58;;;13.90;99.90;;;;;;5073934;28;20112;-75
2022/08/22 01:10:42;;;;;;;3.80;2.70;;;13.90;99.90;;;;;;5074511;28;20032;-75
2022/08/22 01:13:09;;;;;;;4.30;2.75;;;13.90;99.90;;;;;;5074817;28;20020;-75
2022/08/22 01:15:36;;;;;;;3.78;2.72;;;13.90;99.90;;;;;;5074412;28;20023;-75
2022/08/22 01:18:39;;;;;;;4.55;3.00;;;13.90;99.90;;;;;;5074427;28;20025;-75
2022/08/22 01:21:35;;;;;;;4.03;2.78;;;13.90;99.90;;;;;;5074242;28;20032;-74
2022/08/22 01:24:26;;;;;;;4.25;3.20;;;13.90;99.90;;;;;;5073798;28;20131;-75
2022/08/22 01:27:19;;;;;;;4.43;3.28;;;13.80;99.90;;;;;;5074279;28;20063;-75
2022/08/22 01:29:48;;;;;;;5.35;3.22;;;13.70;99.90;;;;;;5074381;28;20024;-75
2022/08/22 01:32:50;;;;;;;4.40;2.83;;;13.70;99.90;;;;;;5074088;28;20126;-74
2022/08/22 01:35:34;;;;;;;4.03;2.90;;;13.70;99.90;;;;;;5074583;28;20354;-75
2022/08/22 01:38:06;;;;;;;3.85;2.90;;;13.70;99.90;;;;;;5072792;28;20388;-75
2022/08/22 01:41:09;;;;;;;3.95;2.78;;;13.70;99.90;;;;;;5073952;28;20073;-75
2022/08/22 01:43:57;;;;;;;4.85;2.95;;;13.70;99.90;;;;;;5073948;28;20021;-75
2022/08/22 01:46:31;;;;;;;4.30;2.90;;;13.70;99.90;;;;;;5072128;28;20381;-75
2022/08/22 01:49:26;;;;;;;4.22;2.70;;;13.70;99.90;;;;;;5072451;28;20035;-75
2022/08/22 01:52:11;;;;;;;5.63;2.60;;;13.70;99.90;;;;;;5073832;28;20048;-74
2022/08/22 01:54:50;;;;;;;4.38;2.60;;;13.70;99.90;;;;;;5074036;28;20099;-75
2022/08/22 01:57:18;;;;;;;4.55;2.80;;;13.60;99.90;;;;;;5073732;28;20028;-75
2022/08/22 01:59:48;;;;;;;4.22;2.63;;;13.60;99.90;;;;;;5073685;28;20055;-75
2022/08/22 02:02:34;;;;;;;4.40;2.60;;;13.50;99.90;;;;;;5072632;28;20029;-74
2022/08/22 02:05:06;;;;;;;4.20;2.85;;;13.50;99.90;;;;;;5073302;28;20040;-75
2022/08/22 02:07:53;;;;;;;4.72;2.78;;;13.50;99.90;;;;;;5073359;28;20044;-75
2022/08/22 02:10:44;;;;;;;4.00;2.90;;;13.50;99.90;;;;;;5073379;28;20016;-75
2022/08/22 02:13:43;;;;;;;3.65;2.80;;;13.50;99.90;;;;;;5073538;28;20043;-75
2022/08/22 02:16:24;;;;;;;3.95;3.00;;;13.50;99.90;;;;;;5073510;28;20091;-75
2022/08/22 02:19:06;;;;;;;5.75;2.83;;;13.50;99.90;;;;;;5072225;28;20481;-75
2022/08/22 02:21:52;;;;;;;5.60;3.05;;;13.50;99.90;;;;;;5072112;28;20054;-74
2022/08/22 02:24:39;;;;;;;4.15;2.92;;;13.40;99.90;;;;;;5073736;28;20032;-75
2022/08/22 02:27:18;;;;;;;5.07;3.20;;;13.40;99.90;;;;;;5073372;28;20027;-75
2022/08/22 02:30:19;;;;;;;5.63;3.22;;;13.30;99.90;;;;;;5073596;28;20511;-75
2022/08/22 02:32:57;;;;;;;3.75;2.83;;;13.30;99.90;;;;;;5071943;28;20124;-74
2022/08/22 02:35:37;;;;;;;4.55;2.78;;;13.30;99.90;;;;;;5073568;28;20028;-75
2022/08/22 02:38:34;;;;;;;4.68;2.95;;;13.30;99.90;;;;;;5071994;28;20021;-74
2022/08/22 02:41:30;;;;;;;4.03;2.60;;;13.20;99.90;;;;;;5073511;28;20093;-74
2022/08/22 02:44:22;;;;;;;5.05;2.83;;;13.20;99.90;;;;;;5073526;28;20021;-75
2022/08/22 02:47:01;;;;;;;4.13;3.00;;;13.10;99.90;;;;;;5072891;28;20167;-75
2022/08/22 02:49:35;;;;;;;4.35;2.97;;;13.10;99.90;;;;;;5073701;28;20021;-75
2022/08/22 02:52:10;;;;;;;3.97;3.33;;;13.10;99.90;;;;;;5073063;28;20044;-74
2022/08/22 02:54:54;;;;;;;4.05;2.97;;;13.10;99.90;;;;;;5073055;28;20013;-75
2022/08/22 02:57:34;;;;;;;4.78;3.20;;;13.10;99.90;;;;;;5073971;28;20337;-75
2022/08/22 03:00:21;;;;;;;6.30;3.05;;;13.10;99.90;;;;;;5077676;28;20028;-74
2022/08/22 03:02:56;;;;;;;4.45;2.88;;;13.10;99.90;;;;;;5075728;28;20127;-74
2022/08/22 03:05:27;;;;;;;5.38;3.38;;;13.10;99.90;;;;;;5076969;28;20036;-75
2022/08/22 03:08:03;;;;;;;5.70;3.17;;;13.10;99.90;;;;;;5076784;28;20040;-75
2022/08/22 03:10:35;;;;;;;4.78;3.17;;;13.10;99.90;;;;;;5077100;28;20078;-75
2022/08/22 03:13:25;;;;;;;4.65;3.25;;;13.10;99.90;;;;;;5077031;28;20481;-74
2022/08/22 03:16:09;;;;;;;4.25;3.10;;;13.10;99.90;;;;;;5076777;28;20064;-75
2022/08/22 03:18:52;;;;;;;6.22;3.10;;;13.10;99.90;;;;;;5075410;28;20436;-74
2022/08/22 03:21:24;;;;;;;5.68;3.35;;;13.10;99.90;;;;;;5077133;28;20074;-74
2022/08/22 03:24:21;;;;;;;4.63;2.85;;;13.20;99.90;;;;;;5075287;28;20472;-74
2022/08/22 03:26:47;;;;;;;5.40;3.17;;;13.20;99.90;;;;;;5076795;28;20033;-74
2022/08/22 03:29:28;;;;;;;4.63;3.20;;;13.20;99.90;;;;;;5076657;28;20107;-74
2022/08/22 03:32:16;;;;;;;4.60;2.88;;;13.10;99.90;;;;;;5075367;28;20066;-73
2022/08/22 03:35:02;;;;;;;4.22;3.08;;;13.10;99.90;;;;;;5075050;28;20469;-74
2022/08/22 03:37:33;;;;;;;4.60;3.35;;;13.10;99.90;;;;;;5076641;28;20028;-75
2022/08/22 03:40:01;;;;;;;6.25;3.35;;;13.20;99.90;;;;;;5076897;28;20473;-74
2022/08/22 03:42:38;;;;;;;5.93;3.88;;;13.20;99.90;;;;;;5076173;28;20530;-74
2022/08/22 03:45:07;;;;;;;5.80;4.00;;;13.10;99.90;;;;;;5076216;28;20028;-74
2022/08/22 03:47:41;;;;;;;4.90;3.45;;;13.10;99.90;;;;;;5076127;28;20035;-74
2022/08/22 03:50:39;;;;;;;5.53;3.80;;;13.10;99.90;;;;;;5076348;28;20028;-73
2022/08/22 03:53:23;;;;;;;6.65;4.32;;;13.10;99.90;;;;;;5074722;28;20025;-75
2022/08/22 03:56:27;;;;;;;7.60;4.72;;;13.00;99.90;;;;;;5075966;28;20024;-75
2022/08/22 03:59:28;;;;;;;5.93;4.80;;;13.00;99.90;;;;;;5074988;28;20469;-74
2022/08/22 04:02:19;;;;;;;6.60;5.03;;;12.90;99.90;;;;;;5073912;28;20033;-73
2022/08/22 04:04:56;;;;;;;7.50;5.20;;;12.70;99.90;;;;;;5075887;28;20529;-74
2022/08/22 04:07:31;;;;;;;4.93;3.72;;;12.70;99.90;;;;;;5074450;28;20040;-74
2022/08/22 04:10:18;;;;;;;7.60;4.82;;;12.70;99.90;;;;;;5074949;28;20020;-74
2022/08/22 04:12:53;;;;;;;6.07;4.53;;;12.70;99.90;;;;;;5075675;28;20461;-74
2022/08/22 04:15:55;;;;;;;5.90;4.43;;;12.60;99.90;;;;;;5075582;28;20024;-74
2022/08/22 04:18:44;;;;;;;6.78;4.30;;;12.60;99.90;;;;;;5075901;28;20415;-74
2022/08/22 04:21:41;;;;;;;7.35;4.50;;;12.60;99.90;;;;;;5074220;28;20025;-74
2022/08/22 04:24:29;;;;;;;6.38;4.30;;;12.60;99.90;;;;;;5074252;28;20029;-74
2022/08/22 04:27:09;;;;;;;5.70;4.38;;;12.70;99.90;;;;;;5074187;28;20071;-75
2022/08/22 04:30:14;;;;;;;6.07;4.53;;;12.70;99.90;;;;;;5075354;28;20024;-74
2022/08/22 04:32:44;;;;;;;8.10;5.15;;;12.70;99.90;;;;;;5073883;28;20064;-74
2022/08/22 04:35:26;;;;;;;7.60;5.10;;;12.80;99.90;;;;;;5075612;28;20102;-73
2022/08/22 04:37:51;;;;;;;;;;;12.80;99.90;;;;;;5075944;28;20024;-73
2022/08/22 04:40:25;;;;;;;9.50;5.80;;;12.80;99.90;;;;;;5073934;28;19904;-73
2022/08/22 04:43:02;;;;;;;17.98;9.52;;;12.80;99.90;;;;;;5075366;28;20491;-73
2022/08/22 04:45:34;;;;;;;12.93;7.47;;;12.80;99.90;;;;;;5075094;28;20032;-72
2022/08/22 04:48:31;;;;;;;11.40;6.93;;;12.80;99.90;;;;;;5073787;28;20035;-72
2022/08/22 04:51:05;;;;;;;12.95;7.20;;;12.80;99.90;;;;;;5075068;28;20476;-73
2022/08/22 04:53:58;;;;;;;10.68;6.97;;;12.70;99.90;;;;;;5073954;28;20468;-72
2022/08/22 04:56:42;;;;;;;10.25;7.43;;;12.60;99.90;;;;;;5074862;28;20073;-73
2022/08/22 04:59:15;;;;;;;12.15;7.85;;;12.60;99.90;;;;;;5073818;28;20064;-72
2022/08/22 05:01:57;;;;;;;11.18;7.68;;;12.60;99.90;;;;;;5073692;28;20051;-73
2022/08/22 05:04:24;;;;;;;;;;;12.60;99.90;;;;;;5075678;28;20017;-73
2022/08/22 05:06:55;;;;;;;7.90;5.78;;;12.50;99.90;;;;;;5074733;28;19950;-73
2022/08/22 05:09:27;;;;;;;9.90;7.15;;;12.50;99.90;;;;;;5075152;28;20039;-72
2022/08/22 05:11:56;;;;;;;10.07;7.53;;;12.60;99.90;;;;;;5074452;28;20021;-73
2022/08/22 05:14:56;;;;;;;13.23;8.30;;;12.60;99.90;;;;;;5074479;28;20021;-73
2022/08/22 05:17:25;;;;;;;13.32;8.63;;;12.70;99.90;;;;;;5073500;28;20488;-73
2022/08/22 05:19:55;;;;;;;13.98;8.90;;;12.70;99.90;;;;;;5074628;28;20029;-73
2022/08/22 05:22:28;;;;;;;13.93;8.95;;;12.70;99.90;;;;;;5074392;28;20361;-73
2022/08/22 05:25:01;;;;;;;17.73;10.20;;;12.70;99.90;;;;;;5074230;28;20025;-72
2022/08/22 05:27:44;;;;;;;16.65;9.60;;;12.80;99.90;;;;;;5072933;28;20043;-73
2022/08/22 05:30:17;;;;;;;12.90;8.93;;;12.80;99.90;;;;;;5074400;28;20068;-73
2022/08/22 05:32:55;;;;;;;11.88;7.85;;;12.80;99.90;;;;;;5074679;28;20141;-72
2022/08/22 05:35:35;;;;;;;10.82;6.68;;;12.90;99.90;;;;;;5074083;28;20274;-73
2022/08/22 05:38:03;;;;;;;9.65;6.82;;;12.90;99.90;;;;;;5074363;28;20017;-73
2022/08/22 05:40:32;;;;;;;12.07;6.25;;;12.90;99.90;;;;;;5072748;28;20542;-73
2022/08/22 05:42:58;;;;;;;10.25;6.68;;;12.80;99.90;;;;;;5073952;28;20111;-73
2022/08/22 05:45:26;;;;;;;11.13;6.57;;;12.90;99.90;;;;;;5073874;28;20063;-73
2022/08/22 05:48:03;;;;;;;8.65;6.25;;;12.80;99.90;;;;;;5072570;28;20031;-73
2022/08/22 05:50:53;;;;;;;9.00;5.90;;;12.80;99.90;;;;;;5074033;28;20028;-74
2022/08/22 05:53:45;;;;;;;10.30;7.10;;;12.80;99.90;;;;;;5073833;28;20017;-73
2022/08/22 05:56:29;;;;;;;11.40;7.68;;;12.80;99.90;;;;;;5074010;28;20016;-73
2022/08/22 05:59:01;;;;;;;10.18;6.65;;;12.80;99.90;;;;;;5072425;28;20116;-72
2022/08/22 06:01:33;;;;;;;9.13;6.88;;;12.80;99.90;;;;;;5073828;28;20370;-72
2022/08/22 06:04:26;;;;;;;10.63;7.90;;;12.90;99.90;;;;;;5073690;28;20074;-73
2022/08/22 06:06:56;;;;;;;10.93;7.95;;;12.90;99.90;;;;;;5073371;28;20131;-74
2022/08/22 06:09:40;;;;;;;9.32;7.53;;;13.00;99.90;;;;;;5073833;28;20036;-74
2022/08/22 06:12:29;;;;;;;10.68;8.43;;;12.90;99.90;;;;;;5073596;28;20028;-73
2022/08/22 06:15:01;;;;;;;8.43;6.22;;;13.00;99.90;;;;;;5072904;28;20381;-74
2022/08/22 06:17:46;;;;;;;8.77;6.68;;;13.10;99.90;;;;;;5073549;28;20027;-74
2022/08/22 06:20:25;;;;;;;9.63;6.57;;;13.20;99.90;;;;;;5073733;28;20099;-74
2022/08/22 06:22:59;;;;;;;8.02;5.80;;;13.30;99.90;;;;;;5073438;28;20024;-74
2022/08/22 06:25:29;;;;;;;6.95;5.20;;;13.40;99.90;;;;;;5072130;28;20031;-74
2022/08/22 06:27:57;;;;;;;7.13;4.75;;;13.50;99.90;;;;;;5073347;28;20036;-74
2022/08/22 06:30:26;;;;;;;7.75;5.05;;;13.60;99.90;;;;;;5073530;28;20029;-74
2022/08/22 06:32:57;;;;;;;9.13;6.20;;;13.70;99.90;;;;;;5072711;28;20024;-74
2022/08/22 06:36:29;;;;;;;10.68;7.07;;;13.70;99.90;;;;;;5073613;28;20465;-74
2022/08/22 06:38:15;;;;;;;;;;;13.80;99.90;;;;;;5073562;28;20497;-74
2022/08/22 06:40:41;;;;;;;8.98;7.25;;;13.80;99.90;;;;;;5071952;28;20096;-74
2022/08/22 06:43:06;;;;;;;8.02;6.53;;;13.80;99.90;;;;;;5073195;28;20035;-74
2022/08/22 06:45:34;;;;;;;8.27;6.72;;;13.90;99.90;;;;;;5073454;28;20032;-74
2022/08/22 06:48:06;;;;;;;9.00;6.78;;;14.00;99.90;;;;;;5072017;28;20025;-74
2022/08/22 06:50:33;;;;;;;7.00;5.78;;;14.10;99.90;;;;;;5071945;28;20392;-74
2022/08/22 06:53:19;;;;;;;8.52;6.15;;;14.20;99.90;;;;;;5073657;28;20437;-73
2022/08/22 06:55:54;;;;;;;11.02;7.03;;;14.30;99.90;;;;;;5073403;28;20028;-74
2022/08/22 06:58:27;;;;;;;7.13;5.85;;;14.40;99.90;;;;;;5073440;28;20081;-74
2022/08/22 07:01:01;;;;;;;8.80;5.72;;;14.50;99.90;;;;;;5073275;28;20016;-73
2022/08/22 07:03:38;;;;;;;9.13;5.55;;;14.60;99.90;;;;;;5073370;28;20025;-74
2022/08/22 07:06:03;;;;;;;7.32;5.53;;;14.80;99.90;;;;;;5073041;28;20120;-73
2022/08/22 07:08:32;;;;;;;9.10;6.82;;;14.90;99.90;;;;;;5072884;28;20548;-74
2022/08/22 07:11:20;;;;;;;8.43;6.35;;;15.00;99.90;;;;;;5071581;28;20029;-73
2022/08/22 07:14:01;;;;;;;10.95;7.13;;;15.10;99.90;;;;;;5073466;28;20420;-74
2022/08/22 07:16:42;;;;;;;8.50;6.43;;;15.20;99.90;;;;;;5091963;28;20016;-73
2022/08/22 07:19:20;;;;;;;7.90;6.00;;;15.30;99.90;;;;;;5093874;28;20024;-73
2022/08/22 07:21:47;;;;;;;8.38;6.55;;;15.50;99.90;;;;;;5093921;28;20093;-73
2022/08/22 07:24:18;;;;;;;9.55;6.93;;;15.60;99.90;;;;;;5087466;28;20033;-73
2022/08/22 07:26:50;;;;;;;7.22;5.70;;;15.80;99.90;;;;;;5081151;28;20020;-73
2022/08/22 07:30:03;;;;;;;9.05;6.28;;;15.90;99.90;;;;;;5091443;28;20028;-73
2022/08/22 07:32:47;;;;;;;10.07;5.78;;;16.00;99.90;;;;;;5082017;28;20488;-73
2022/08/22 07:35:17;;;;;;;7.93;6.05;;;16.10;99.90;;;;;;5089805;28;20017;-73
2022/08/22 07:37:49;;;;;;;6.78;5.30;;;16.10;99.90;;;;;;5091331;28;20017;-74
2022/08/22 07:40:34;;;;;;;8.52;5.05;;;16.20;99.90;;;;;;5091047;28;20080;-72
2022/08/22 07:43:30;;;;;;;9.75;5.82;;;16.40;99.90;;;;;;5090620;28;20548;-73
2022/08/22 07:46:19;;;;;;;6.68;5.18;;;16.50;99.90;;;;;;5091967;28;20032;-73
2022/08/22 07:49:02;;;;;;;6.68;5.13;;;16.60;99.90;;;;;;5090454;28;20510;-73
2022/08/22 07:51:34;;;;;;;7.40;5.13;;;16.70;99.90;;;;;;5095301;28;20127;-72
2022/08/22 07:54:08;;;;;;;6.32;4.90;;;16.80;99.90;;;;;;5094216;28;20077;-72
2022/08/22 07:56:49;;;;;;;11.10;5.57;;;17.00;99.90;;;;;;5095313;28;20495;-73
2022/08/22 07:59:18;;;;;;;7.68;5.20;;;17.10;99.90;;;;;;5094430;28;20483;-73
2022/08/22 08:01:48;;;;;;;8.68;5.30;;;17.10;99.90;;;;;;5096221;28;20110;-73
2022/08/22 08:04:22;;;;;;;6.80;4.65;;;17.20;99.90;;;;;;5095271;28;20380;-73
2022/08/22 08:06:51;;;;;;;6.28;4.90;;;17.20;99.90;;;;;;5094127;28;20508;-73
2022/08/22 08:09:19;;;;;;;5.90;4.47;;;17.30;99.90;;;;;;5093051;28;20028;-73
2022/08/22 08:11:48;;;;;;;8.07;4.57;;;17.40;99.90;;;;;;5095048;28;20039;-73
2022/08/22 08:14:15;;;;;;;6.05;4.03;;;17.40;99.90;;;;;;5095045;28;20016;-73
2022/08/22 08:17:01;;;;;;;5.82;4.30;;;17.50;99.90;;;;;;5095030;28;20028;-73
2022/08/22 08:19:29;;;;;;;6.95;4.68;;;17.60;99.90;;;;;;5094815;28;20479;-74
2022/08/22 08:21:57;;;;;;;6.28;4.65;;;17.90;99.90;;;;;;5090452;28;20045;-73
2022/08/22 08:24:35;;;;;;;5.85;3.83;;;18.00;99.90;;;;;;5095093;28;20542;-73
2022/08/22 08:29:57;;;;;;;7.80;5.15;;;18.50;99.90;;;;;;5075370;28;20523;-74
2022/08/22 08:32:26;;;;;;;7.30;4.68;;;18.80;99.90;;;;;;5074313;28;20384;-74
2022/08/22 08:34:52;;;;;;;6.65;4.75;;;18.90;99.90;;;;;;5075387;28;20025;-75
2022/08/22 08:37:50;;;;;;;6.00;4.57;;;19.00;99.90;;;;;;5075603;28;20087;-74
2022/08/22 08:40:54;;;;;;;4.60;3.72;;;19.20;99.90;;;;;;5074200;28;20166;-75
2022/08/22 08:43:33;;;;;;;6.90;4.75;;;19.30;99.90;;;;;;5066236;28;20041;-75
2022/08/22 08:46:02;;;;;;;6.32;4.28;;;19.50;99.90;;;;;;5075418;28;20024;-74
2022/08/22 08:48:49;;;;;;;5.65;4.20;;;19.70;99.90;;;;;;5075104;28;20040;-74
2022/08/22 08:51:33;;;;;;;6.00;3.83;;;19.80;99.90;;;;;;5073556;28;20025;-74
2022/08/22 08:54:10;;;;;;;5.07;3.67;;;20.00;99.90;;;;;;5074934;28;20425;-75
2022/08/22 08:56:58;;;;;;;6.60;3.95;;;20.20;99.90;;;;;;5074748;28;20028;-74
2022/08/22 08:59:30;;;;;;;6.57;3.65;;;20.40;99.90;;;;;;5076964;28;20013;-74
2022/08/22 09:02:45;;;;;;;5.55;4.00;;;20.50;99.90;;;;;;5074995;28;20112;-74
2022/08/22 09:05:29;;;;;;;5.50;3.38;;;20.70;99.90;;;;;;5052990;28;20025;-75
2022/08/22 09:08:07;;;;;;;7.20;3.60;;;20.80;99.90;;;;;;5074558;28;20117;-75
2022/08/22 09:10:59;;;;;;;4.55;3.80;;;20.80;99.90;;;;;;5074850;28;20065;-74
2022/08/22 09:13:52;;;;;;;6.07;4.05;;;20.80;99.90;;;;;;5075116;28;20369;-75
2022/08/22 09:16:36;;;;;;;3.95;3.30;;;20.90;99.90;;;;;;5074557;28;20096;-75
2022/08/22 09:19:14;;;;;;;6.70;3.75;;;21.00;99.90;;;;;;5074708;28;20021;-74
2022/08/22 09:22:12;;;;;;;6.03;3.83;;;21.10;99.90;;;;;;5074362;28;20035;-74
2022/08/22 09:24:51;;;;;;;5.78;3.60;;;21.30;99.90;;;;;;5074665;28;20017;-74
2022/08/22 09:27:37;;;;;;;4.57;3.38;;;21.40;99.90;;;;;;5074345;28;20025;-74
2022/08/22 09:30:11;;;;;;;6.85;3.75;;;21.40;99.90;;;;;;5074134;28;20108;-74
2022/08/22 09:32:53;;;;;;;6.07;3.70;;;21.50;99.90;;;;;;5074152;28;20025;-74
2022/08/22 09:35:30;;;;;;;5.05;3.72;;;21.70;99.90;;;;;;5073938;28;20022;-74
2022/08/22 09:38:14;;;;;;;7.95;3.50;;;21.70;99.90;;;;;;5074011;28;20035;-74
2022/08/22 09:40:49;;;;;;;5.13;3.33;;;21.80;99.90;;;;;;5074354;28;20151;-74
2022/08/22 09:43:22;;;;;;;4.88;3.72;;;22.00;99.00;;;;;;5074280;28;20021;-74
2022/08/22 09:46:09;;;;;;;5.03;3.63;;;22.00;99.90;;;;;;5073986;28;20031;-74
2022/08/22 09:49:01;;;;;;;5.80;3.50;;;22.10;99.90;;;;;;5073915;28;20029;-74
2022/08/22 09:52:00;;;;;;;5.13;3.40;;;22.10;99.90;;;;;;5065182;28;20512;-74
2022/08/22 09:54:53;;;;;;;5.63;3.40;;;22.10;99.60;;;;;;5063512;28;20040;-74
2022/08/22 09:57:35;;;;;;;4.88;3.30;;;21.90;99.70;;;;;;5072518;28;20024;-74
2022/08/22 10:00:10;;;;;;;5.57;3.35;;;21.80;99.10;;;;;;5074023;28;20089;-74
2022/08/22 10:03:03;;;;;;;5.90;3.90;;;21.80;99.70;;;;;;5073615;28;20472;-74
2022/08/22 10:05:45;;;;;;;6.13;3.10;;;21.80;98.80;;;;;;5073677;28;20062;-75
2022/08/22 10:08:37;;;;;;;5.45;3.10;;;21.90;99.00;;;;;;5072853;28;20094;-75
2022/08/22 10:11:24;;;;;;;4.38;3.00;;;22.00;98.70;;;;;;5073764;28;20035;-74
2022/08/22 10:13:55;;;;;;;4.63;3.00;;;22.20;97.90;;;;;;5073576;28;20021;-74
2022/08/22 10:16:27;;;;;;;4.25;3.35;;;22.40;96.90;;;;;;5073780;28;20036;-75
2022/08/22 10:19:06;;;;;;;5.25;3.30;;;22.60;97.10;;;;;;5073919;28;20095;-74
2022/08/22 10:21:58;;;;;;;4.90;3.10;;;22.60;96.50;;;;;;5073404;28;20054;-74
2022/08/22 10:24:50;;;;;;;6.50;3.30;;;22.60;96.30;;;;;;5082390;28;20036;-74
2022/08/22 10:27:23;;;;;;;6.50;2.63;;;22.60;95.60;;;;;;5093885;28;20023;-75
2022/08/22 10:30:11;;;;;;;5.03;2.95;;;22.70;95.10;;;;;;5093558;28;20024;-75
2022/08/22 10:33:02;;;;;;;5.03;3.00;;;22.80;93.40;;;;;;5093076;28;20021;-74
2022/08/22 10:35:32;;;;;;;4.93;3.05;;;23.00;93.50;;;;;;5093814;28;20024;-74
2022/08/22 10:38:22;;;;;;;4.85;2.88;;;23.30;93.00;;;;;;5093888;28;20027;-75
2022/08/22 10:41:21;;;;;;;7.82;2.80;;;23.50;91.60;;;;;;5092983;28;20361;-75
2022/08/22 10:44:12;;;;;;;4.80;3.03;;;23.60;91.00;;;;;;5092252;28;20024;-75
2022/08/22 10:46:40;;;;;;;5.72;3.10;;;23.60;91.40;;;;;;5082843;28;20048;-74
2022/08/22 10:49:24;;;;;;;6.22;2.72;;;23.70;91.00;;;;;;5075769;28;20035;-74
2022/08/22 10:52:11;;;;;;;5.10;2.72;;;23.80;89.20;;;;;;5073220;28;20021;-74
2022/08/22 10:55:01;;;;;;;3.78;2.78;;;23.70;90.00;;;;;;5076135;28;20489;-74
2022/08/22 10:57:53;;;;;;;4.10;2.60;;;23.80;91.10;;;;;;5093341;28;20133;-75
2022/08/22 11:00:37;;;;;;;5.82;3.00;;;23.90;87.10;;;;;;5079670;28;20102;-74
2022/08/22 11:03:21;;;;;;;5.45;3.05;;;24.10;83.60;;;;;;5072954;28;20051;-74
2022/08/22 11:05:49;;;;;;;4.50;2.60;;;24.20;85.90;;;;;;5073608;28;20496;-74
2022/08/22 11:08:32;;;;;;;6.20;2.50;;;24.20;85.80;;;;;;5073783;28;20090;-74
2022/08/22 11:11:13;;;;;;;4.20;2.08;;;24.30;80.60;;;;;;5071076;28;20103;-74
2022/08/22 11:14:26;;;;;;;6.43;2.22;;;24.30;84.50;;;;;;5072320;28;20021;-74
2022/08/22 11:17:02;;;;;;;5.93;2.92;;;24.50;86.60;;;;;;5071002;28;20041;-74
2022/08/22 11:19:57;;;;;;;5.55;2.60;;;24.70;78.50;;;;;;5072569;28;20021;-74
2022/08/22 11:22:56;;;;;;;3.97;2.40;;;24.70;77.70;;;;;;5076299;28;20108;-74
2022/08/22 11:25:31;;;;;;;4.32;2.28;;;24.40;79.90;;;;;;5077144;28;20028;-74
2022/08/22 11:28:28;;;;;;;5.25;2.80;;;24.20;82.50;;;;;;5075336;28;20493;-74
2022/08/22 11:31:18;;;;;;;3.50;2.40;;;24.00;80.80;;;;;;5076386;28;20515;-73
2022/08/22 11:34:21;;;;;;;4.22;2.38;;;23.70;77.20;;;;;;5077010;28;20013;-74
2022/08/22 11:36:53;;;;;;;4.32;2.25;;;23.50;76.30;;;;;;5076670;28;20056;-74
2022/08/22 11:39:33;;;;;;;9.23;2.42;;;23.30;77.90;;;;;;5076716;28;20465;-74
2022/08/22 11:42:34;;;;;;;5.95;2.70;;;23.20;78.60;;;;;;5076857;28;20036;-74
2022/08/22 11:45:03;;;;;;;3.28;2.17;;;23.10;76.30;;;;;;5076070;28;20039;-74
2022/08/22 11:47:44;;;;;;;3.55;2.25;;;23.10;76.90;;;;;;5076381;28;20112;-74
2022/08/22 11:50:42;;;;;;;6.93;2.50;;;23.10;77.40;;;;;;5076559;28;20021;-74
2022/08/22 11:53:25;;;;;;;2.80;2.10;;;23.00;73.60;;;;;;5075755;28;20077;-74
2022/08/22 11:56:09;;;;;;;4.60;2.40;;;23.00;76.30;;;;;;5076113;28;20025;-74
2022/08/22 11:59:08;;;;;;;10.90;2.88;;;23.20;76.60;;;;;;5076154;28;20027;-75
2022/08/22 12:01:36;;;;;;;3.97;2.00;;;23.40;74.50;;;;;;5076340;28;20543;-74
2022/08/22 12:04:16;;;;;;;4.53;2.30;;;23.80;78.40;;;;;;5075937;28;20040;-75
2022/08/22 12:06:47;;;;;;;5.82;2.38;;;24.20;78.50;;;;;;5075871;28;20032;-74
2022/08/22 12:09:26;;;;;;;;;;;24.60;76.30;;;;;;5076186;28;20028;-74
2022/08/22 12:11:58;;;;;;;4.50;2.15;;;24.80;71.80;;;;;;5075875;28;19926;-74
2022/08/22 12:14:40;;;;;;;4.63;2.13;;;25.00;67.40;;;;;;5075749;28;20024;-75
2022/08/22 12:17:31;;;;;;;3.50;2.30;;;25.10;73.40;;;;;;5074617;28;20490;-74
2022/08/22 12:20:19;;;;;;;3.92;2.03;;;24.90;70.90;;;;;;5075741;28;20480;-74
2022/08/22 12:23:23;;;;;;;3.53;1.80;;;24.70;70.90;;;;;;5074572;28;20024;-74
2022/08/22 12:25:51;;;;;;;3.65;2.10;;;24.60;65.50;;;;;;5075852;28;20044;-74
2022/08/22 12:28:29;;;;;;;3.53;1.70;;;24.50;66.00;;;;;;5075632;28;20035;-74
2022/08/22 12:31:03;;;;;;;5.00;2.33;;;24.50;69.50;;;;;;5075003;28;20376;-74
2022/08/22 12:33:43;;;;;;;5.50;2.88;;;24.60;69.00;;;;;;5075435;28;20166;-74
2022/08/22 12:36:45;;;;;;;5.45;2.80;;;24.50;74.90;;;;;;5076017;28;20031;-74
2022/08/22 12:39:48;;;;;;;5.20;3.53;;;24.60;76.40;;;;;;5074520;28;20028;-74
2022/08/22 12:42:31;;;;;;;5.85;3.15;;;24.50;76.10;;;;;;5075609;28;20044;-74
2022/08/22 12:45:29;;;;;;;5.82;2.85;;;24.50;77.20;;;;;;5075917;28;20027;-74
2022/08/22 12:48:04;;;;;;;4.97;2.80;;;24.40;75.40;;;;;;5076218;28;20024;-73
2022/08/22 12:50:42;;;;;;;4.97;2.80;;;24.30;76.60;;;;;;5075637;28;20029;-73
2022/08/22 12:53:14;;;;;;;4.90;2.80;;;24.40;78.50;;;;;;5075754;28;20021;-74
2022/08/22 12:56:24;;;;;;;5.00;2.90;;;24.20;75.20;;;;;;5074959;28;20073;-74
2022/08/22 12:59:08;;;;;;;8.07;2.53;;;23.80;76.30;;;;;;5076066;28;20052;-74
2022/08/22 13:01:38;;;;;;;5.97;2.80;;;23.60;77.70;;;;;;5075749;28;20246;-74
2022/08/22 13:04:11;;;;;;;7.05;2.90;;;23.50;78.80;;;;;;5075760;28;20111;-74
2022/08/22 13:06:37;;;;;;;4.90;3.05;;;23.30;77.20;;;;;;5075337;28;20032;-74
2022/08/22 13:09:17;;;;;;;6.82;2.63;;;23.10;79.00;;;;;;5075458;28;20115;-74
2022/08/22 13:11:46;;;;;;;5.43;2.47;;;23.20;79.80;;;;;;5074929;28;20024;-74
2022/08/22 13:14:18;;;;;;;5.35;2.78;;;23.30;78.40;;;;;;5074147;28;20051;-74
2022/08/22 13:16:49;;;;;;;5.88;2.25;;;23.40;78.20;;;;;;5075184;28;20028;-71
2022/08/22 13:19:29;;;;;;;5.70;2.70;;;23.60;76.50;;;;;;5074493;28;20024;-70
2022/08/22 13:22:01;;;;;;;5.78;2.92;;;23.80;75.30;;;;;;5074479;28;20021;-70
2022/08/22 13:24:40;;;;;;;6.22;2.60;;;23.90;74.00;;;;;;5074711;28;20477;-70
2022/08/22 13:27:13;;;;;;;4.97;2.67;;;23.90;73.40;;;;;;5074598;28;20028;-71
2022/08/22 13:29:49;;;;;;;6.57;2.30;;;23.90;72.30;;;;;;5074508;28;20028;-70
2022/08/22 13:32:30;;;;;;;5.00;2.60;;;24.00;73.00;;;;;;5074195;28;20024;-71
2022/08/22 13:34:57;;;;;;;3.75;2.10;;;23.90;72.50;;;;;;5074210;28;20035;-69
2022/08/22 13:37:43;;;;;;;6.10;2.60;;;23.80;70.70;;;;;;5074120;28;20112;-70
2022/08/22 13:40:30;;;;;;;3.70;2.50;;;23.70;70.80;;;;;;5072833;28;20021;-70
2022/08/22 13:43:08;;;;;;;4.80;2.80;;;23.70;71.60;;;;;;5072545;28;20036;-71
2022/08/22 13:45:36;;;;;;;7.35;2.38;;;23.90;71.30;;;;;;5073984;28;20379;-70
2022/08/22 13:48:09;;;;;;;5.97;2.50;;;24.00;68.80;;;;;;5073951;28;20082;-69
2022/08/22 13:50:58;;;;;;;5.80;2.38;;;23.90;68.10;;;;;;5073825;28;20031;-71
2022/08/22 13:53:33;;;;;;;4.53;2.10;;;23.90;68.00;;;;;;5074177;28;20017;-70
2022/08/22 13:56:08;;;;;;;5.75;2.33;;;23.90;69.80;;;;;;5073809;28;20376;-71
2022/08/22 13:58:42;;;;;;;5.78;2.63;;;24.00;68.90;;;;;;5073825;28;20017;-70
2022/08/22 14:01:46;;;;;;;5.28;2.58;;;24.00;66.70;;;;;;5073934;28;20017;-70
2022/08/22 14:04:28;;;;;;;3.65;2.25;;;24.10;67.60;;;;;;5073476;28;20100;-71